Key West, FL

16:53 EDT le 27 Mars 2015 (GMT -0400)
Dade County-Homestead Regional | | Change Station
CLOSE
Current Station
Aéroport
Location: Homestead AFB,
Altitude: 7 ft
Stations météo à proximité

Alt. 7 ft 25.49 °N, 80.38 °W | Updated 55 minutes ago

Nuageux
Nuageux
86 ° F
Paraît 91 ° F
N
17
Vent Variable Vent de SSO
Gusts 25 mph

Aujourd'hui
Haut(e) -- | Bas -- ° F
--% Risque de précip.
Hier
Haut(e) -- | Bas -- ° F
Precip. -- pouce
7:23 AM 7:40 PM
Premier quartier, 55% visible
Pression 29.87 pouce
Visibilité 10.0 Miles terrestres
Nuages Peu 3400 ft
Nuages épars 14000 ft
indice de chaleur 91 ° F
Point de rosée 71 ° F
Humidité 60%
Précipitations 0.00 pouce
Profondeur de la couche neigeuse Non disponible.
UV 7 sur 12
Pollen 8.00 sur 12
Qualité de l'air Non disponible.
Flu Activity Non disponible.
METAR KHST 271958Z AUTO 21015G22KT 10SM FEW034 SCT140 30/22 A2986 RMK AO2 PK WND 19026/10 SLP115 T03000215

More Conditions Fewer Conditions

Pression 29.87 pouce
Visibilité 10.0 Miles terrestres
Nuages Peu 3400 ft
Nuages épars 14000 ft
indice de chaleur 91 ° F
Point de rosée 71 ° F
Humidité 60%
Précipitations 0.00 pouce
Profondeur de la couche neigeuse Non disponible.
UV 7 sur 12
Pollen 8.00 sur 12
Qualité de l'air Non disponible.
Flu Activity Non disponible.
METAR KHST 271958Z AUTO 21015G22KT 10SM FEW034 SCT140 30/22 A2986 RMK AO2 PK WND 19026/10 SLP115 T03000215

More Conditions Fewer Conditions

10-Day Weather Forecast

Almanac

Astronomie

Mar. 27, 2015 Lever Coucher
Temps réel
Crépuscule civil
Crépuscule nautique
Crépuscule astronomique
Lune
Durée de lumière visible
Longueur du jour
Tomorrow will be .
, % of the Moon is Illuminated

Extrêmes aujourd'hui

State Highs State Lows

Community

WunderPhotos

Upload Photos

1,808,822 Photos téléchargées !

WunderBlogs® & News

Nearby

Qualité de l'air

  Qualité de l'air Indice de la qualité de l'air Polluant
Not available.

Épaisseur de neige

Station Depth Altitude

Activité sismique

Ville Distance Mag. Time & Date
Minimum magnitude displayed is 2.5.

Températures des eaux côtières

Lieu Température

Stations

Stations météo à proximité

Emplacement de la station Température Refroidissement éolien Point de rosée Humidité Vent Precip. Alt. Mise à jour Type